sensor_id;sensor_type;location;lat;lon;timestamp;P1;durP1;ratioP1;P2;durP2;ratioP2
31728;SDS011;18309;43.658;1.312;2023-03-01T00:01:58;35.35;;;15.07;;
31728;SDS011;18309;43.658;1.312;2023-03-01T00:04:24;35.70;;;15.55;;
31728;SDS011;18309;43.658;1.312;2023-03-01T00:06:50;30.83;;;14.02;;
31728;SDS011;18309;43.658;1.312;2023-03-01T00:09:16;37.58;;;14.57;;
31728;SDS011;18309;43.658;1.312;2023-03-01T00:11:42;52.33;;;16.27;;
31728;SDS011;18309;43.658;1.312;2023-03-01T00:14:08;61.35;;;18.45;;
31728;SDS011;18309;43.658;1.312;2023-03-01T00:16:35;47.75;;;16.38;;
31728;SDS011;18309;43.658;1.312;2023-03-01T00:19:04;42.35;;;15.00;;
31728;SDS011;18309;43.658;1.312;2023-03-01T00:21:32;47.00;;;15.38;;
31728;SDS011;18309;43.658;1.312;2023-03-01T00:23:58;49.65;;;18.25;;
31728;SDS011;18309;43.658;1.312;2023-03-01T00:26:25;66.70;;;21.55;;
31728;SDS011;18309;43.658;1.312;2023-03-01T00:28:51;63.80;;;23.65;;
31728;SDS011;18309;43.658;1.312;2023-03-01T00:31:18;59.35;;;21.10;;
31728;SDS011;18309;43.658;1.312;2023-03-01T00:33:46;48.58;;;17.17;;
31728;SDS011;18309;43.658;1.312;2023-03-01T00:36:13;66.75;;;20.63;;
31728;SDS011;18309;43.658;1.312;2023-03-01T00:38:41;92.38;;;21.35;;
31728;SDS011;18309;43.658;1.312;2023-03-01T00:41:13;156.38;;;32.20;;
31728;SDS011;18309;43.658;1.312;2023-03-01T00:43:40;168.40;;;34.92;;
31728;SDS011;18309;43.658;1.312;2023-03-01T00:46:10;127.20;;;28.15;;
31728;SDS011;18309;43.658;1.312;2023-03-01T00:48:38;71.90;;;19.95;;
31728;SDS011;18309;43.658;1.312;2023-03-01T00:51:14;51.90;;;15.55;;
31728;SDS011;18309;43.658;1.312;2023-03-01T00:53:42;74.72;;;19.58;;
31728;SDS011;18309;43.658;1.312;2023-03-01T00:56:08;90.22;;;22.48;;
31728;SDS011;18309;43.658;1.312;2023-03-01T00:58:36;96.10;;;26.00;;
31728;SDS011;18309;43.658;1.312;2023-03-01T01:01:09;98.97;;;27.10;;
31728;SDS011;18309;43.658;1.312;2023-03-01T01:03:47;67.18;;;19.67;;
31728;SDS011;18309;43.658;1.312;2023-03-01T01:06:19;36.05;;;12.45;;
31728;SDS011;18309;43.658;1.312;2023-03-01T01:08:45;29.23;;;10.98;;
31728;SDS011;18309;43.658;1.312;2023-03-01T01:11:11;21.60;;;9.23;;
31728;SDS011;18309;43.658;1.312;2023-03-01T01:13:38;19.90;;;8.82;;
31728;SDS011;18309;43.658;1.312;2023-03-01T01:16:04;19.23;;;9.32;;
31728;SDS011;18309;43.658;1.312;2023-03-01T01:18:31;19.10;;;8.95;;
31728;SDS011;18309;43.658;1.312;2023-03-01T01:20:56;20.10;;;10.00;;
31728;SDS011;18309;43.658;1.312;2023-03-01T01:23:22;21.10;;;8.55;;
31728;SDS011;18309;43.658;1.312;2023-03-01T01:25:47;21.42;;;9.30;;
31728;SDS011;18309;43.658;1.312;2023-03-01T01:28:13;22.52;;;9.38;;
31728;SDS011;18309;43.658;1.312;2023-03-01T01:30:39;20.88;;;9.63;;
31728;SDS011;18309;43.658;1.312;2023-03-01T01:33:04;24.00;;;10.10;;
31728;SDS011;18309;43.658;1.312;2023-03-01T01:35:30;28.67;;;10.55;;
31728;SDS011;18309;43.658;1.312;2023-03-01T01:37:56;20.15;;;9.82;;
31728;SDS011;18309;43.658;1.312;2023-03-01T01:40:21;27.73;;;10.77;;
31728;SDS011;18309;43.658;1.312;2023-03-01T01:42:47;23.48;;;10.48;;
31728;SDS011;18309;43.658;1.312;2023-03-01T01:50:20;43.22;;;13.88;;
31728;SDS011;18309;43.658;1.312;2023-03-01T01:52:47;38.55;;;15.10;;
31728;SDS011;18309;43.658;1.312;2023-03-01T01:55:15;36.53;;;14.93;;
31728;SDS011;18309;43.658;1.312;2023-03-01T01:57:47;47.53;;;17.55;;
31728;SDS011;18309;43.658;1.312;2023-03-01T02:00:17;46.33;;;16.45;;
31728;SDS011;18309;43.658;1.312;2023-03-01T02:05:28;42.53;;;13.85;;
31728;SDS011;18309;43.658;1.312;2023-03-01T02:08:04;29.58;;;12.45;;
31728;SDS011;18309;43.658;1.312;2023-03-01T02:10:31;24.55;;;11.18;;
31728;SDS011;18309;43.658;1.312;2023-03-01T02:12:59;28.98;;;11.00;;
31728;SDS011;18309;43.658;1.312;2023-03-01T02:15:26;23.23;;;9.98;;
31728;SDS011;18309;43.658;1.312;2023-03-01T02:17:53;18.80;;;9.60;;
31728;SDS011;18309;43.658;1.312;2023-03-01T02:23:34;29.38;;;11.18;;
31728;SDS011;18309;43.658;1.312;2023-03-01T02:28:39;26.42;;;10.00;;
31728;SDS011;18309;43.658;1.312;2023-03-01T02:31:08;22.50;;;10.52;;
31728;SDS011;18309;43.658;1.312;2023-03-01T02:33:55;24.38;;;9.95;;
31728;SDS011;18309;43.658;1.312;2023-03-01T02:36:23;24.52;;;10.63;;
31728;SDS011;18309;43.658;1.312;2023-03-01T02:38:52;29.15;;;11.05;;
31728;SDS011;18309;43.658;1.312;2023-03-01T02:41:20;32.83;;;13.05;;
31728;SDS011;18309;43.658;1.312;2023-03-01T02:43:48;28.48;;;11.65;;
31728;SDS011;18309;43.658;1.312;2023-03-01T02:46:16;32.08;;;11.50;;
31728;SDS011;18309;43.658;1.312;2023-03-01T02:51:39;28.10;;;12.20;;
31728;SDS011;18309;43.658;1.312;2023-03-01T02:56:46;56.67;;;16.98;;
31728;SDS011;18309;43.658;1.312;2023-03-01T02:59:13;31.00;;;13.02;;
31728;SDS011;18309;43.658;1.312;2023-03-01T03:01:41;32.83;;;11.80;;
31728;SDS011;18309;43.658;1.312;2023-03-01T03:04:08;26.05;;;10.75;;
31728;SDS011;18309;43.658;1.312;2023-03-01T03:06:36;21.33;;;9.38;;
31728;SDS011;18309;43.658;1.312;2023-03-01T03:09:02;20.80;;;9.85;;
31728;SDS011;18309;43.658;1.312;2023-03-01T03:11:29;25.48;;;9.30;;
31728;SDS011;18309;43.658;1.312;2023-03-01T03:13:55;21.95;;;10.02;;
31728;SDS011;18309;43.658;1.312;2023-03-01T03:16:22;22.40;;;9.45;;
31728;SDS011;18309;43.658;1.312;2023-03-01T03:18:49;23.17;;;9.25;;
31728;SDS011;18309;43.658;1.312;2023-03-01T03:21:15;24.60;;;9.95;;
31728;SDS011;18309;43.658;1.312;2023-03-01T03:23:42;18.20;;;8.98;;
31728;SDS011;18309;43.658;1.312;2023-03-01T03:26:08;20.50;;;9.52;;
31728;SDS011;18309;43.658;1.312;2023-03-01T03:28:38;20.95;;;10.45;;
31728;SDS011;18309;43.658;1.312;2023-03-01T03:31:05;17.98;;;9.88;;
31728;SDS011;18309;43.658;1.312;2023-03-01T03:33:32;18.48;;;9.73;;
31728;SDS011;18309;43.658;1.312;2023-03-01T03:35:58;18.33;;;9.48;;
31728;SDS011;18309;43.658;1.312;2023-03-01T03:38:24;20.35;;;10.25;;
31728;SDS011;18309;43.658;1.312;2023-03-01T03:40:59;21.63;;;10.23;;
31728;SDS011;18309;43.658;1.312;2023-03-01T03:43:28;27.58;;;10.57;;
31728;SDS011;18309;43.658;1.312;2023-03-01T03:45:56;20.88;;;10.07;;
31728;SDS011;18309;43.658;1.312;2023-03-01T03:48:24;25.48;;;10.85;;
31728;SDS011;18309;43.658;1.312;2023-03-01T03:50:55;18.42;;;8.90;;
31728;SDS011;18309;43.658;1.312;2023-03-01T03:53:22;22.58;;;10.68;;
31728;SDS011;18309;43.658;1.312;2023-03-01T03:55:50;23.40;;;10.38;;
31728;SDS011;18309;43.658;1.312;2023-03-01T03:58:16;21.08;;;10.27;;
31728;SDS011;18309;43.658;1.312;2023-03-01T04:00:44;26.33;;;10.80;;
31728;SDS011;18309;43.658;1.312;2023-03-01T04:03:13;36.22;;;13.25;;
31728;SDS011;18309;43.658;1.312;2023-03-01T04:05:40;25.35;;;11.45;;
31728;SDS011;18309;43.658;1.312;2023-03-01T04:08:06;23.65;;;10.00;;
31728;SDS011;18309;43.658;1.312;2023-03-01T04:10:43;19.88;;;9.30;;
31728;SDS011;18309;43.658;1.312;2023-03-01T04:13:11;26.00;;;10.95;;
31728;SDS011;18309;43.658;1.312;2023-03-01T04:15:38;20.48;;;9.93;;
31728;SDS011;18309;43.658;1.312;2023-03-01T04:18:04;19.95;;;9.48;;
31728;SDS011;18309;43.658;1.312;2023-03-01T04:20:32;17.42;;;9.35;;
31728;SDS011;18309;43.658;1.312;2023-03-01T04:23:04;22.38;;;9.85;;
31728;SDS011;18309;43.658;1.312;2023-03-01T04:28:18;20.58;;;9.05;;
31728;SDS011;18309;43.658;1.312;2023-03-01T04:30:45;19.52;;;8.45;;
31728;SDS011;18309;43.658;1.312;2023-03-01T04:33:11;18.95;;;9.63;;
31728;SDS011;18309;43.658;1.312;2023-03-01T04:35:37;18.77;;;8.95;;
31728;SDS011;18309;43.658;1.312;2023-03-01T04:38:04;22.23;;;9.57;;
31728;SDS011;18309;43.658;1.312;2023-03-01T04:40:30;25.35;;;9.48;;
31728;SDS011;18309;43.658;1.312;2023-03-01T04:42:56;21.13;;;10.23;;
31728;SDS011;18309;43.658;1.312;2023-03-01T04:45:22;18.13;;;9.13;;
31728;SDS011;18309;43.658;1.312;2023-03-01T04:47:48;19.15;;;9.02;;
31728;SDS011;18309;43.658;1.312;2023-03-01T04:50:17;16.70;;;9.35;;
31728;SDS011;18309;43.658;1.312;2023-03-01T04:52:45;19.17;;;8.52;;
31728;SDS011;18309;43.658;1.312;2023-03-01T04:55:11;18.35;;;8.88;;
31728;SDS011;18309;43.658;1.312;2023-03-01T04:57:37;20.73;;;9.90;;
31728;SDS011;18309;43.658;1.312;2023-03-01T05:00:04;16.20;;;8.57;;
31728;SDS011;18309;43.658;1.312;2023-03-01T05:02:54;18.25;;;9.85;;
31728;SDS011;18309;43.658;1.312;2023-03-01T05:07:51;16.95;;;9.55;;
31728;SDS011;18309;43.658;1.312;2023-03-01T05:10:17;20.00;;;9.95;;
31728;SDS011;18309;43.658;1.312;2023-03-01T05:12:44;14.27;;;8.57;;
31728;SDS011;18309;43.658;1.312;2023-03-01T05:15:09;16.52;;;9.43;;
31728;SDS011;18309;43.658;1.312;2023-03-01T05:17:35;20.02;;;9.35;;
31728;SDS011;18309;43.658;1.312;2023-03-01T05:20:01;21.30;;;9.90;;
31728;SDS011;18309;43.658;1.312;2023-03-01T05:22:31;23.40;;;9.35;;
31728;SDS011;18309;43.658;1.312;2023-03-01T05:24:57;22.83;;;9.50;;
31728;SDS011;18309;43.658;1.312;2023-03-01T05:27:22;14.07;;;7.93;;
31728;SDS011;18309;43.658;1.312;2023-03-01T05:29:48;17.48;;;9.40;;
31728;SDS011;18309;43.658;1.312;2023-03-01T05:32:14;19.48;;;9.63;;
31728;SDS011;18309;43.658;1.312;2023-03-01T05:34:40;19.83;;;9.50;;
31728;SDS011;18309;43.658;1.312;2023-03-01T05:37:06;17.25;;;9.65;;
31728;SDS011;18309;43.658;1.312;2023-03-01T05:39:33;16.60;;;9.35;;
31728;SDS011;18309;43.658;1.312;2023-03-01T05:42:00;14.50;;;8.90;;
31728;SDS011;18309;43.658;1.312;2023-03-01T05:44:26;17.45;;;9.73;;
31728;SDS011;18309;43.658;1.312;2023-03-01T05:46:53;19.10;;;10.00;;
31728;SDS011;18309;43.658;1.312;2023-03-01T05:49:19;22.52;;;10.25;;
31728;SDS011;18309;43.658;1.312;2023-03-01T05:51:49;21.17;;;9.98;;
31728;SDS011;18309;43.658;1.312;2023-03-01T05:54:15;18.33;;;9.68;;
31728;SDS011;18309;43.658;1.312;2023-03-01T05:56:41;25.52;;;10.05;;
31728;SDS011;18309;43.658;1.312;2023-03-01T05:59:07;23.33;;;11.70;;
31728;SDS011;18309;43.658;1.312;2023-03-01T06:01:33;20.95;;;10.93;;
31728;SDS011;18309;43.658;1.312;2023-03-01T06:03:59;27.23;;;11.90;;
31728;SDS011;18309;43.658;1.312;2023-03-01T06:06:25;24.88;;;12.77;;
31728;SDS011;18309;43.658;1.312;2023-03-01T06:08:51;27.45;;;13.23;;
31728;SDS011;18309;43.658;1.312;2023-03-01T06:11:17;24.52;;;12.20;;
31728;SDS011;18309;43.658;1.312;2023-03-01T06:13:43;23.00;;;10.23;;
31728;SDS011;18309;43.658;1.312;2023-03-01T06:16:10;21.25;;;11.20;;
31728;SDS011;18309;43.658;1.312;2023-03-01T06:18:36;17.98;;;9.85;;
31728;SDS011;18309;43.658;1.312;2023-03-01T06:21:03;19.27;;;9.55;;
31728;SDS011;18309;43.658;1.312;2023-03-01T06:23:30;21.25;;;10.13;;
31728;SDS011;18309;43.658;1.312;2023-03-01T06:25:55;22.00;;;8.80;;
31728;SDS011;18309;43.658;1.312;2023-03-01T06:28:21;22.27;;;10.43;;
31728;SDS011;18309;43.658;1.312;2023-03-01T06:30:47;19.52;;;9.82;;
31728;SDS011;18309;43.658;1.312;2023-03-01T06:33:14;19.80;;;9.68;;
31728;SDS011;18309;43.658;1.312;2023-03-01T06:35:39;17.23;;;9.30;;
31728;SDS011;18309;43.658;1.312;2023-03-01T06:38:05;23.92;;;10.90;;
31728;SDS011;18309;43.658;1.312;2023-03-01T06:40:31;17.15;;;9.48;;
31728;SDS011;18309;43.658;1.312;2023-03-01T06:42:57;24.27;;;11.68;;
31728;SDS011;18309;43.658;1.312;2023-03-01T06:45:24;26.23;;;12.35;;
31728;SDS011;18309;43.658;1.312;2023-03-01T06:47:50;28.50;;;11.65;;
31728;SDS011;18309;43.658;1.312;2023-03-01T06:50:16;22.75;;;10.77;;
31728;SDS011;18309;43.658;1.312;2023-03-01T06:52:42;28.42;;;12.82;;
31728;SDS011;18309;43.658;1.312;2023-03-01T06:55:09;28.52;;;11.27;;
31728;SDS011;18309;43.658;1.312;2023-03-01T06:57:36;33.47;;;11.90;;
31728;SDS011;18309;43.658;1.312;2023-03-01T07:00:05;24.38;;;11.70;;
31728;SDS011;18309;43.658;1.312;2023-03-01T07:02:31;27.65;;;11.45;;
31728;SDS011;18309;43.658;1.312;2023-03-01T07:04:57;23.70;;;11.77;;
31728;SDS011;18309;43.658;1.312;2023-03-01T07:07:23;21.50;;;12.95;;
31728;SDS011;18309;43.658;1.312;2023-03-01T07:09:49;29.00;;;13.48;;
31728;SDS011;18309;43.658;1.312;2023-03-01T07:12:15;26.50;;;13.65;;
31728;SDS011;18309;43.658;1.312;2023-03-01T07:14:41;29.13;;;14.13;;
31728;SDS011;18309;43.658;1.312;2023-03-01T07:17:08;36.72;;;14.55;;
31728;SDS011;18309;43.658;1.312;2023-03-01T07:19:34;23.85;;;12.73;;
31728;SDS011;18309;43.658;1.312;2023-03-01T07:21:59;31.55;;;13.40;;
31728;SDS011;18309;43.658;1.312;2023-03-01T07:24:25;29.15;;;13.23;;
31728;SDS011;18309;43.658;1.312;2023-03-01T07:26:51;26.02;;;13.13;;
31728;SDS011;18309;43.658;1.312;2023-03-01T07:29:18;27.55;;;13.70;;
31728;SDS011;18309;43.658;1.312;2023-03-01T07:31:44;28.67;;;13.65;;
31728;SDS011;18309;43.658;1.312;2023-03-01T07:34:10;28.80;;;14.30;;
31728;SDS011;18309;43.658;1.312;2023-03-01T07:36:36;32.88;;;13.13;;
31728;SDS011;18309;43.658;1.312;2023-03-01T07:39:02;33.72;;;15.23;;
31728;SDS011;18309;43.658;1.312;2023-03-01T07:41:28;32.08;;;15.63;;
31728;SDS011;18309;43.658;1.312;2023-03-01T07:43:54;32.47;;;15.82;;
31728;SDS011;18309;43.658;1.312;2023-03-01T07:46:20;30.23;;;15.05;;
31728;SDS011;18309;43.658;1.312;2023-03-01T07:48:46;27.42;;;14.85;;
31728;SDS011;18309;43.658;1.312;2023-03-01T07:51:14;25.77;;;13.05;;
31728;SDS011;18309;43.658;1.312;2023-03-01T07:53:44;27.13;;;13.68;;
31728;SDS011;18309;43.658;1.312;2023-03-01T07:56:15;27.17;;;14.30;;
31728;SDS011;18309;43.658;1.312;2023-03-01T08:01:14;27.75;;;13.73;;
31728;SDS011;18309;43.658;1.312;2023-03-01T08:03:41;28.33;;;14.05;;
31728;SDS011;18309;43.658;1.312;2023-03-01T08:06:08;29.30;;;15.00;;
31728;SDS011;18309;43.658;1.312;2023-03-01T08:08:36;40.22;;;17.15;;
31728;SDS011;18309;43.658;1.312;2023-03-01T08:11:03;37.03;;;15.88;;
31728;SDS011;18309;43.658;1.312;2023-03-01T08:13:30;47.05;;;18.08;;
31728;SDS011;18309;43.658;1.312;2023-03-01T08:16:03;58.22;;;19.60;;
31728;SDS011;18309;43.658;1.312;2023-03-01T08:18:30;57.60;;;22.13;;
31728;SDS011;18309;43.658;1.312;2023-03-01T08:21:01;42.35;;;19.67;;
31728;SDS011;18309;43.658;1.312;2023-03-01T08:23:30;45.13;;;19.65;;
31728;SDS011;18309;43.658;1.312;2023-03-01T08:26:02;37.97;;;18.60;;
31728;SDS011;18309;43.658;1.312;2023-03-01T08:28:38;35.20;;;16.85;;
31728;SDS011;18309;43.658;1.312;2023-03-01T08:33:54;18.85;;;9.57;;
31728;SDS011;18309;43.658;1.312;2023-03-01T08:36:22;27.98;;;12.77;;
31728;SDS011;18309;43.658;1.312;2023-03-01T08:38:49;20.98;;;10.45;;
31728;SDS011;18309;43.658;1.312;2023-03-01T08:41:15;20.27;;;10.20;;
31728;SDS011;18309;43.658;1.312;2023-03-01T08:43:41;17.38;;;9.98;;
31728;SDS011;18309;43.658;1.312;2023-03-01T08:46:06;22.02;;;10.43;;
31728;SDS011;18309;43.658;1.312;2023-03-01T08:48:32;17.80;;;9.88;;
31728;SDS011;18309;43.658;1.312;2023-03-01T08:51:06;21.38;;;10.13;;
31728;SDS011;18309;43.658;1.312;2023-03-01T08:53:33;22.83;;;8.88;;
31728;SDS011;18309;43.658;1.312;2023-03-01T08:56:02;15.88;;;8.10;;
31728;SDS011;18309;43.658;1.312;2023-03-01T08:58:28;17.38;;;8.32;;
31728;SDS011;18309;43.658;1.312;2023-03-01T09:00:54;18.92;;;8.65;;
31728;SDS011;18309;43.658;1.312;2023-03-01T09:03:21;18.73;;;9.13;;
31728;SDS011;18309;43.658;1.312;2023-03-01T09:05:48;15.07;;;7.60;;
31728;SDS011;18309;43.658;1.312;2023-03-01T09:08:15;12.88;;;6.82;;
31728;SDS011;18309;43.658;1.312;2023-03-01T09:10:41;15.85;;;7.80;;
31728;SDS011;18309;43.658;1.312;2023-03-01T09:13:07;18.42;;;8.40;;
31728;SDS011;18309;43.658;1.312;2023-03-01T09:15:33;14.55;;;7.72;;
31728;SDS011;18309;43.658;1.312;2023-03-01T09:17:59;13.40;;;7.38;;
31728;SDS011;18309;43.658;1.312;2023-03-01T09:20:25;14.88;;;7.93;;
31728;SDS011;18309;43.658;1.312;2023-03-01T09:22:50;19.67;;;7.78;;
31728;SDS011;18309;43.658;1.312;2023-03-01T09:25:16;14.10;;;7.72;;
31728;SDS011;18309;43.658;1.312;2023-03-01T09:27:42;11.60;;;7.53;;
31728;SDS011;18309;43.658;1.312;2023-03-01T09:30:08;13.98;;;7.88;;
31728;SDS011;18309;43.658;1.312;2023-03-01T09:32:34;12.80;;;6.95;;
31728;SDS011;18309;43.658;1.312;2023-03-01T09:35:00;14.52;;;6.60;;
31728;SDS011;18309;43.658;1.312;2023-03-01T09:37:28;11.18;;;6.60;;
31728;SDS011;18309;43.658;1.312;2023-03-01T09:39:54;12.02;;;6.85;;
31728;SDS011;18309;43.658;1.312;2023-03-01T09:42:20;11.93;;;5.70;;
31728;SDS011;18309;43.658;1.312;2023-03-01T09:44:48;12.63;;;6.32;;
31728;SDS011;18309;43.658;1.312;2023-03-01T09:47:33;12.13;;;6.95;;
31728;SDS011;18309;43.658;1.312;2023-03-01T09:50:11;12.55;;;6.40;;
31728;SDS011;18309;43.658;1.312;2023-03-01T09:55:33;11.65;;;7.15;;
31728;SDS011;18309;43.658;1.312;2023-03-01T09:58:24;12.27;;;6.72;;
31728;SDS011;18309;43.658;1.312;2023-03-01T10:04:36;13.30;;;5.85;;
31728;SDS011;18309;43.658;1.312;2023-03-01T10:09:42;11.38;;;6.88;;
31728;SDS011;18309;43.658;1.312;2023-03-01T10:12:20;13.20;;;6.55;;
31728;SDS011;18309;43.658;1.312;2023-03-01T10:19:50;12.10;;;6.47;;
31728;SDS011;18309;43.658;1.312;2023-03-01T10:22:17;12.25;;;6.82;;
31728;SDS011;18309;43.658;1.312;2023-03-01T10:24:50;19.63;;;8.38;;
31728;SDS011;18309;43.658;1.312;2023-03-01T10:27:22;14.82;;;7.10;;
31728;SDS011;18309;43.658;1.312;2023-03-01T10:30:06;13.07;;;7.13;;
31728;SDS011;18309;43.658;1.312;2023-03-01T10:32:42;14.43;;;7.47;;
31728;SDS011;18309;43.658;1.312;2023-03-01T10:35:19;16.77;;;7.88;;
31728;SDS011;18309;43.658;1.312;2023-03-01T10:40:36;13.30;;;7.40;;
31728;SDS011;18309;43.658;1.312;2023-03-01T10:43:32;10.57;;;6.50;;
31728;SDS011;18309;43.658;1.312;2023-03-01T10:49:07;10.93;;;5.65;;
31728;SDS011;18309;43.658;1.312;2023-03-01T10:51:41;10.40;;;6.13;;
31728;SDS011;18309;43.658;1.312;2023-03-01T10:54:28;11.50;;;6.78;;
31728;SDS011;18309;43.658;1.312;2023-03-01T10:56:56;18.65;;;6.28;;
31728;SDS011;18309;43.658;1.312;2023-03-01T11:02:16;8.60;;;4.80;;
31728;SDS011;18309;43.658;1.312;2023-03-01T11:05:27;11.32;;;5.43;;
31728;SDS011;18309;43.658;1.312;2023-03-01T11:07:56;8.77;;;5.10;;
31728;SDS011;18309;43.658;1.312;2023-03-01T11:10:24;15.98;;;5.55;;
31728;SDS011;18309;43.658;1.312;2023-03-01T11:12:56;18.70;;;7.18;;
31728;SDS011;18309;43.658;1.312;2023-03-01T11:15:57;27.20;;;7.10;;
31728;SDS011;18309;43.658;1.312;2023-03-01T11:18:24;15.80;;;5.80;;
31728;SDS011;18309;43.658;1.312;2023-03-01T11:20:52;9.93;;;5.63;;
31728;SDS011;18309;43.658;1.312;2023-03-01T11:23:20;8.43;;;5.55;;
31728;SDS011;18309;43.658;1.312;2023-03-01T11:25:56;16.05;;;5.50;;
31728;SDS011;18309;43.658;1.312;2023-03-01T11:28:27;8.00;;;4.85;;
31728;SDS011;18309;43.658;1.312;2023-03-01T11:30:55;9.93;;;5.53;;
31728;SDS011;18309;43.658;1.312;2023-03-01T11:36:19;12.25;;;6.18;;
31728;SDS011;18309;43.658;1.312;2023-03-01T11:38:49;12.63;;;6.22;;
31728;SDS011;18309;43.658;1.312;2023-03-01T11:41:49;12.75;;;6.38;;
31728;SDS011;18309;43.658;1.312;2023-03-01T11:44:14;9.70;;;6.22;;
31728;SDS011;18309;43.658;1.312;2023-03-01T11:49:48;13.80;;;6.53;;
31728;SDS011;18309;43.658;1.312;2023-03-01T12:00:25;14.63;;;7.93;;
31728;SDS011;18309;43.658;1.312;2023-03-01T12:09:02;11.85;;;6.55;;
31728;SDS011;18309;43.658;1.312;2023-03-01T12:36:09;8.55;;;5.78;;
31728;SDS011;18309;43.658;1.312;2023-03-01T12:49:40;8.65;;;5.53;;
31728;SDS011;18309;43.658;1.312;2023-03-01T12:54:41;9.02;;;4.93;;
31728;SDS011;18309;43.658;1.312;2023-03-01T12:59:42;13.95;;;5.55;;
31728;SDS011;18309;43.658;1.312;2023-03-01T13:05:00;10.32;;;6.00;;
31728;SDS011;18309;43.658;1.312;2023-03-01T13:07:38;8.95;;;5.55;;
31728;SDS011;18309;43.658;1.312;2023-03-01T13:17:56;10.40;;;5.25;;
31728;SDS011;18309;43.658;1.312;2023-03-01T13:20:30;11.32;;;6.07;;
31728;SDS011;18309;43.658;1.312;2023-03-01T13:30:59;8.68;;;5.45;;
31728;SDS011;18309;43.658;1.312;2023-03-01T13:35:51;8.80;;;5.78;;
31728;SDS011;18309;43.658;1.312;2023-03-01T13:41:06;11.18;;;6.65;;
31728;SDS011;18309;43.658;1.312;2023-03-01T13:43:34;9.40;;;5.50;;
31728;SDS011;18309;43.658;1.312;2023-03-01T13:46:07;9.45;;;6.03;;
31728;SDS011;18309;43.658;1.312;2023-03-01T13:48:36;9.68;;;6.32;;
31728;SDS011;18309;43.658;1.312;2023-03-01T13:51:04;8.88;;;6.22;;
31728;SDS011;18309;43.658;1.312;2023-03-01T13:53:34;11.15;;;6.15;;
31728;SDS011;18309;43.658;1.312;2023-03-01T13:56:09;8.43;;;5.95;;
31728;SDS011;18309;43.658;1.312;2023-03-01T13:58:53;8.50;;;5.32;;
31728;SDS011;18309;43.658;1.312;2023-03-01T14:03:49;8.63;;;5.30;;
31728;SDS011;18309;43.658;1.312;2023-03-01T14:06:16;11.35;;;5.80;;
31728;SDS011;18309;43.658;1.312;2023-03-01T14:08:48;11.32;;;5.07;;
31728;SDS011;18309;43.658;1.312;2023-03-01T14:19:38;8.35;;;5.25;;
31728;SDS011;18309;43.658;1.312;2023-03-01T14:22:16;22.90;;;7.70;;
31728;SDS011;18309;43.658;1.312;2023-03-01T14:24:55;7.78;;;4.88;;
31728;SDS011;18309;43.658;1.312;2023-03-01T14:27:26;9.80;;;5.70;;
31728;SDS011;18309;43.658;1.312;2023-03-01T14:30:02;8.25;;;6.07;;
31728;SDS011;18309;43.658;1.312;2023-03-01T14:32:35;8.07;;;5.05;;
31728;SDS011;18309;43.658;1.312;2023-03-01T14:35:01;9.73;;;6.03;;
31728;SDS011;18309;43.658;1.312;2023-03-01T14:37:31;7.82;;;5.28;;
31728;SDS011;18309;43.658;1.312;2023-03-01T14:39:58;13.63;;;5.80;;
31728;SDS011;18309;43.658;1.312;2023-03-01T14:42:28;7.68;;;4.93;;
31728;SDS011;18309;43.658;1.312;2023-03-01T14:44:56;17.35;;;6.45;;
31728;SDS011;18309;43.658;1.312;2023-03-01T14:47:33;8.40;;;5.22;;
31728;SDS011;18309;43.658;1.312;2023-03-01T14:52:34;9.20;;;5.97;;
31728;SDS011;18309;43.658;1.312;2023-03-01T14:55:09;11.13;;;5.50;;
31728;SDS011;18309;43.658;1.312;2023-03-01T14:57:50;11.15;;;4.72;;
31728;SDS011;18309;43.658;1.312;2023-03-01T15:02:45;9.00;;;5.38;;
31728;SDS011;18309;43.658;1.312;2023-03-01T15:05:13;12.07;;;5.90;;
31728;SDS011;18309;43.658;1.312;2023-03-01T15:07:40;8.68;;;4.93;;
31728;SDS011;18309;43.658;1.312;2023-03-01T15:10:24;8.85;;;5.30;;
31728;SDS011;18309;43.658;1.312;2023-03-01T15:12:52;8.98;;;5.53;;
31728;SDS011;18309;43.658;1.312;2023-03-01T15:15:20;9.30;;;6.07;;
31728;SDS011;18309;43.658;1.312;2023-03-01T15:17:48;9.07;;;5.75;;
31728;SDS011;18309;43.658;1.312;2023-03-01T15:20:20;9.02;;;5.82;;
31728;SDS011;18309;43.658;1.312;2023-03-01T15:22:51;8.52;;;5.00;;
31728;SDS011;18309;43.658;1.312;2023-03-01T15:25:21;9.55;;;5.38;;
31728;SDS011;18309;43.658;1.312;2023-03-01T15:27:50;10.20;;;5.30;;
31728;SDS011;18309;43.658;1.312;2023-03-01T15:30:21;8.32;;;5.13;;
31728;SDS011;18309;43.658;1.312;2023-03-01T15:32:49;7.78;;;5.28;;
31728;SDS011;18309;43.658;1.312;2023-03-01T15:35:45;9.65;;;5.38;;
31728;SDS011;18309;43.658;1.312;2023-03-01T15:40:50;7.75;;;4.57;;
31728;SDS011;18309;43.658;1.312;2023-03-01T15:46:12;11.73;;;5.10;;
31728;SDS011;18309;43.658;1.312;2023-03-01T15:48:43;9.55;;;5.70;;
31728;SDS011;18309;43.658;1.312;2023-03-01T15:51:11;9.53;;;5.60;;
31728;SDS011;18309;43.658;1.312;2023-03-01T15:53:39;8.35;;;4.80;;
31728;SDS011;18309;43.658;1.312;2023-03-01T15:56:05;11.23;;;5.68;;
31728;SDS011;18309;43.658;1.312;2023-03-01T15:58:32;11.13;;;6.18;;
31728;SDS011;18309;43.658;1.312;2023-03-01T16:00:58;8.95;;;5.88;;
31728;SDS011;18309;43.658;1.312;2023-03-01T16:03:24;12.18;;;5.75;;
31728;SDS011;18309;43.658;1.312;2023-03-01T16:05:50;9.75;;;5.32;;
31728;SDS011;18309;43.658;1.312;2023-03-01T16:08:17;8.18;;;5.32;;
31728;SDS011;18309;43.658;1.312;2023-03-01T16:10:43;9.15;;;5.97;;
31728;SDS011;18309;43.658;1.312;2023-03-01T16:13:09;9.38;;;5.50;;
31728;SDS011;18309;43.658;1.312;2023-03-01T16:15:36;8.68;;;5.40;;
31728;SDS011;18309;43.658;1.312;2023-03-01T16:18:04;10.60;;;5.85;;
31728;SDS011;18309;43.658;1.312;2023-03-01T16:20:35;11.75;;;5.50;;
31728;SDS011;18309;43.658;1.312;2023-03-01T16:23:01;10.73;;;5.95;;
31728;SDS011;18309;43.658;1.312;2023-03-01T16:25:30;8.40;;;5.32;;
31728;SDS011;18309;43.658;1.312;2023-03-01T16:27:57;9.32;;;5.93;;
31728;SDS011;18309;43.658;1.312;2023-03-01T16:30:25;14.07;;;5.72;;
31728;SDS011;18309;43.658;1.312;2023-03-01T16:32:51;9.77;;;5.93;;
31728;SDS011;18309;43.658;1.312;2023-03-01T16:35:19;12.85;;;5.68;;
31728;SDS011;18309;43.658;1.312;2023-03-01T16:37:46;8.20;;;5.18;;
31728;SDS011;18309;43.658;1.312;2023-03-01T16:40:17;9.63;;;5.32;;
31728;SDS011;18309;43.658;1.312;2023-03-01T16:42:45;9.73;;;6.03;;
31728;SDS011;18309;43.658;1.312;2023-03-01T16:45:12;12.63;;;5.78;;
31728;SDS011;18309;43.658;1.312;2023-03-01T16:47:38;14.88;;;6.35;;
31728;SDS011;18309;43.658;1.312;2023-03-01T16:50:03;16.23;;;6.78;;
31728;SDS011;18309;43.658;1.312;2023-03-01T16:52:29;11.48;;;5.93;;
31728;SDS011;18309;43.658;1.312;2023-03-01T16:54:55;13.32;;;6.35;;
31728;SDS011;18309;43.658;1.312;2023-03-01T16:57:21;11.07;;;6.20;;
31728;SDS011;18309;43.658;1.312;2023-03-01T16:59:46;10.82;;;6.00;;
31728;SDS011;18309;43.658;1.312;2023-03-01T17:02:12;9.70;;;5.90;;
31728;SDS011;18309;43.658;1.312;2023-03-01T17:04:39;10.07;;;5.55;;
31728;SDS011;18309;43.658;1.312;2023-03-01T17:07:05;16.70;;;6.10;;
31728;SDS011;18309;43.658;1.312;2023-03-01T17:09:35;13.75;;;6.38;;
31728;SDS011;18309;43.658;1.312;2023-03-01T17:12:02;9.73;;;5.88;;
31728;SDS011;18309;43.658;1.312;2023-03-01T17:14:29;12.98;;;5.78;;
31728;SDS011;18309;43.658;1.312;2023-03-01T17:16:55;10.70;;;6.20;;
31728;SDS011;18309;43.658;1.312;2023-03-01T17:19:20;9.43;;;5.80;;